Time;durP1;ratioP1;P1;durP2;ratioP2;P2;SDS_P1;SDS_P2;PMS_P1;PMS_P2;Temp;Humidity;BMP_temperature;BMP_pressure;BME280_temperature;BME280_humidity;BME280_pressure;Samples;Min_cycle;Max_cycle;Signal;HPM_P1;HPM_P2
2022/12/01 00:00:34;;;;;;;67.87;29.87;;;5.80;99.90;;;;;;5052893;28;20298;-70
2022/12/01 00:03:00;;;;;;;62.63;27.83;;;5.80;99.90;;;;;;5052493;28;20190;-71
2022/12/01 00:05:26;;;;;;;61.07;27.70;;;5.80;99.90;;;;;;5037057;28;20183;-70
2022/12/01 00:07:51;;;;;;;65.90;29.47;;;5.80;99.90;;;;;;5036855;28;20175;-70
2022/12/01 00:10:27;;;;;;;64.83;29.20;;;5.70;99.90;;;;;;5036624;28;20706;-70
2022/12/01 00:12:57;;;;;;;65.40;30.07;;;5.80;99.90;;;;;;5052084;28;20206;-70
2022/12/01 00:15:26;;;;;;;66.37;28.93;;;5.70;99.90;;;;;;5036873;28;20710;-70
2022/12/01 00:17:52;;;;;;;66.27;29.47;;;5.70;99.90;;;;;;5036522;28;20175;-71
2022/12/01 00:20:18;;;;;;;67.00;29.27;;;5.80;99.90;;;;;;5036474;28;20210;-70
2022/12/01 00:22:47;;;;;;;59.63;27.50;;;5.70;99.90;;;;;;5036528;28;20628;-70
2022/12/01 00:25:15;;;;;;;52.13;26.27;;;5.80;99.90;;;;;;5036833;28;20565;-70
2022/12/01 00:27:41;;;;;;;54.67;25.90;;;5.80;99.90;;;;;;5036287;28;20267;-70
2022/12/01 00:30:10;;;;;;;53.77;24.30;;;5.80;99.90;;;;;;5036228;28;20221;-70
2022/12/01 00:32:36;;;;;;;50.37;24.90;;;5.80;99.90;;;;;;5036266;28;20175;-70
2022/12/01 00:35:03;;;;;;;44.03;23.37;;;5.80;99.90;;;;;;5035316;28;20560;-70
2022/12/01 00:37:31;;;;;;;52.13;24.37;;;5.80;99.90;;;;;;5036355;28;20180;-70
2022/12/01 00:39:57;;;;;;;48.07;23.83;;;5.70;99.90;;;;;;5034822;28;20215;-70
2022/12/01 00:42:23;;;;;;;40.40;23.40;;;5.70;99.90;;;;;;5036099;28;20258;-70
2022/12/01 00:44:49;;;;;;;46.23;22.77;;;5.80;99.90;;;;;;5035843;28;20213;-70
2022/12/01 00:47:15;;;;;;;43.77;23.60;;;5.80;99.90;;;;;;5035553;28;20210;-70
2022/12/01 00:49:41;;;;;;;45.10;23.60;;;5.80;99.90;;;;;;5036253;28;20241;-70
2022/12/01 00:52:07;;;;;;;41.27;22.73;;;5.70;99.90;;;;;;5034774;28;20604;-70
2022/12/01 00:54:32;;;;;;;42.90;23.33;;;5.80;99.90;;;;;;5035867;28;20207;-70
2022/12/01 00:56:59;;;;;;;53.63;25.43;;;5.70;99.90;;;;;;5035771;28;20186;-70
2022/12/01 00:59:25;;;;;;;52.23;27.83;;;5.70;99.90;;;;;;5035852;28;20555;-70
2022/12/01 01:01:51;;;;;;;51.10;25.37;;;5.70;99.90;;;;;;5034736;28;20297;-70
2022/12/01 01:04:17;;;;;;;53.43;25.93;;;5.70;99.90;;;;;;5036071;28;20179;-70
2022/12/01 01:06:43;;;;;;;64.30;29.00;;;5.70;99.90;;;;;;5034657;28;20594;-70
2022/12/01 01:09:09;;;;;;;49.10;24.70;;;5.70;99.90;;;;;;5035770;28;20262;-70
2022/12/01 01:11:35;;;;;;;55.83;27.13;;;5.70;99.90;;;;;;5035605;28;20235;-70
2022/12/01 01:14:01;;;;;;;58.90;28.70;;;5.70;99.90;;;;;;5034223;28;20286;-70
2022/12/01 01:16:27;;;;;;;60.33;27.13;;;5.80;99.90;;;;;;5035531;28;20713;-70
2022/12/01 01:18:53;;;;;;;57.43;29.27;;;5.70;99.90;;;;;;5035500;28;20588;-70
2022/12/01 01:21:21;;;;;;;53.53;27.87;;;5.80;99.90;;;;;;5035743;28;20256;-70
2022/12/01 01:23:48;;;;;;;60.20;29.63;;;5.80;99.90;;;;;;5035389;28;20179;-70
2022/12/01 01:26:17;;;;;;;59.53;29.23;;;5.70;99.90;;;;;;5035505;28;20270;-71
2022/12/01 01:28:43;;;;;;;65.47;28.27;;;5.80;99.90;;;;;;5035077;28;20306;-70
2022/12/01 01:31:11;;;;;;;65.10;28.73;;;5.80;99.90;;;;;;5035440;28;20218;-70
2022/12/01 01:33:37;;;;;;;57.47;29.10;;;5.80;99.90;;;;;;5035637;28;20175;-70
2022/12/01 01:36:04;;;;;;;76.87;31.63;;;5.80;99.90;;;;;;5035365;28;20282;-70
2022/12/01 01:38:30;;;;;;;61.93;29.80;;;5.80;99.90;;;;;;5035071;28;20179;-70
2022/12/01 01:40:57;;;;;;;60.60;29.57;;;5.80;99.90;;;;;;5033756;28;20581;-70
2022/12/01 01:43:41;;;;;;;70.50;31.63;;;5.80;99.90;;;;;;5034850;28;20179;-70
2022/12/01 01:46:08;;;;;;;71.50;31.67;;;5.80;99.90;;;;;;5034989;28;20718;-70
2022/12/01 01:48:36;;;;;;;62.43;30.07;;;5.70;99.90;;;;;;5035273;28;20171;-70
2022/12/01 01:51:03;;;;;;;61.87;30.63;;;5.70;99.90;;;;;;5033422;28;20219;-70
2022/12/01 01:53:30;;;;;;;68.53;31.13;;;5.70;99.90;;;;;;5034681;28;20175;-70
2022/12/01 01:55:56;;;;;;;66.93;30.60;;;5.70;99.90;;;;;;5034824;28;20175;-70
2022/12/01 01:58:22;;;;;;;67.20;29.33;;;5.70;99.90;;;;;;5034443;28;20171;-70
2022/12/01 02:00:48;;;;;;;61.03;28.17;;;5.70;99.90;;;;;;5034586;28;20199;-70
2022/12/01 02:03:17;;;;;;;62.33;28.80;;;5.70;99.90;;;;;;5034701;28;20698;-70
2022/12/01 02:05:44;;;;;;;64.97;27.83;;;5.70;99.90;;;;;;5034646;28;20254;-70
2022/12/01 02:08:11;;;;;;;64.60;30.00;;;5.70;99.90;;;;;;5034376;28;20183;-70
2022/12/01 02:11:09;;;;;;;70.50;29.27;;;5.60;99.90;;;;;;5033153;28;20564;-70
2022/12/01 02:13:58;;;;;;;69.07;29.37;;;5.70;99.90;;;;;;4947515;28;20194;-70
2022/12/01 02:16:41;;;;;;;70.00;31.57;;;5.70;99.90;;;;;;5034385;28;20270;-71
2022/12/01 02:19:40;;;;;;;58.17;29.17;;;5.60;99.90;;;;;;5016687;28;20198;-70
2022/12/01 02:22:29;;;;;;;64.10;30.10;;;5.60;99.90;;;;;;5034275;28;20167;-70
2022/12/01 02:25:25;;;;;;;64.87;29.67;;;5.60;99.90;;;;;;5034308;28;20180;-70
2022/12/01 02:28:00;;;;;;;59.57;27.77;;;5.60;99.90;;;;;;5034100;28;20175;-70
2022/12/01 02:30:31;;;;;;;63.40;28.07;;;5.60;99.90;;;;;;5034124;28;20714;-70
2022/12/01 02:33:09;;;;;;;67.77;30.10;;;5.60;99.90;;;;;;5034103;28;20175;-70
2022/12/01 02:35:53;;;;;;;61.77;27.77;;;5.60;99.90;;;;;;5034300;28;20163;-70
2022/12/01 02:38:27;;;;;;;64.00;29.80;;;5.60;99.90;;;;;;5034032;28;20236;-70
2022/12/01 02:40:55;;;;;;;64.57;28.83;;;5.60;99.90;;;;;;5034151;28;20567;-70
2022/12/01 02:43:32;;;;;;;64.77;28.20;;;5.60;99.90;;;;;;5016080;28;20205;-70
2022/12/01 02:46:35;;;;;;;65.40;27.33;;;5.60;99.90;;;;;;5033776;28;20163;-70
2022/12/01 02:49:09;;;;;;;72.40;30.70;;;5.60;99.90;;;;;;4993056;28;20198;-70
2022/12/01 02:51:38;;;;;;;76.20;31.63;;;5.60;99.90;;;;;;5033699;28;20350;-70
2022/12/01 02:54:04;;;;;;;68.87;31.33;;;5.60;99.90;;;;;;5032372;28;20224;-70
2022/12/01 02:56:30;;;;;;;73.60;32.70;;;5.60;99.90;;;;;;5032412;28;20179;-70
2022/12/01 02:58:56;;;;;;;76.23;30.90;;;5.60;99.90;;;;;;5015841;28;20206;-70
2022/12/01 03:01:31;;;;;;;67.60;29.20;;;5.60;99.90;;;;;;5034220;28;20209;-70
2022/12/01 03:04:24;;;;;;;75.50;30.80;;;5.50;99.90;;;;;;5033875;28;20182;-70
2022/12/01 03:07:11;;;;;;;68.67;29.00;;;5.50;99.90;;;;;;5015850;28;20195;-71
2022/12/01 03:09:53;;;;;;;63.70;29.03;;;5.60;99.90;;;;;;5014998;28;20560;-71
2022/12/01 03:12:22;;;;;;;68.47;28.60;;;5.60;99.90;;;;;;5033618;28;20160;-70
2022/12/01 03:15:06;;;;;;;65.03;27.53;;;5.50;99.90;;;;;;5034748;28;20195;-70
2022/12/01 03:17:48;;;;;;;64.43;29.10;;;5.60;99.90;;;;;;5033749;28;20243;-70
2022/12/01 03:20:36;;;;;;;69.57;29.40;;;5.60;99.90;;;;;;5033492;28;20611;-70
2022/12/01 03:23:12;;;;;;;71.83;31.23;;;5.60;99.90;;;;;;5048730;28;20565;-70
2022/12/01 03:25:40;;;;;;;73.87;31.37;;;5.60;99.90;;;;;;5033764;28;20209;-70
2022/12/01 03:28:10;;;;;;;58.13;27.70;;;5.60;99.90;;;;;;5048642;28;20186;-70
2022/12/01 03:30:37;;;;;;;68.43;29.77;;;5.60;99.90;;;;;;5033459;28;20675;-70
2022/12/01 03:33:18;;;;;;;70.50;30.90;;;5.60;99.90;;;;;;5033548;28;20221;-70
2022/12/01 03:36:10;;;;;;;79.07;31.93;;;5.60;99.90;;;;;;5033617;28;20160;-70
2022/12/01 03:38:37;;;;;;;59.50;30.63;;;5.60;99.90;;;;;;5033256;28;20219;-70
2022/12/01 03:41:11;;;;;;;70.80;29.77;;;5.60;99.90;;;;;;5033367;28;20248;-70
2022/12/01 03:43:41;;;;;;;75.93;30.03;;;5.50;99.90;;;;;;5033693;28;20509;-70
2022/12/01 03:46:18;;;;;;;59.80;27.10;;;5.50;99.90;;;;;;5033209;28;20176;-70
2022/12/01 03:48:44;;;;;;;67.97;29.37;;;5.60;99.90;;;;;;5048532;28;20179;-70
2022/12/01 03:51:31;;;;;;;76.43;30.17;;;5.60;99.90;;;;;;5033155;28;20272;-70
2022/12/01 03:54:03;;;;;;;78.90;30.20;;;5.60;99.90;;;;;;5033527;28;20258;-70
2022/12/01 03:56:36;;;;;;;80.37;32.00;;;5.60;99.90;;;;;;5031920;28;20214;-70
2022/12/01 03:59:05;;;;;;;68.23;31.47;;;5.50;99.90;;;;;;5033045;28;20172;-70
2022/12/01 04:01:32;;;;;;;80.70;32.10;;;5.50;99.90;;;;;;5033102;28;20191;-70
2022/12/01 04:04:10;;;;;;;73.80;31.20;;;5.50;99.90;;;;;;5032978;28;20179;-70
2022/12/01 04:06:37;;;;;;;67.53;30.80;;;5.50;99.90;;;;;;5048395;28;20179;-70
2022/12/01 04:09:03;;;;;;;67.00;28.37;;;5.50;99.90;;;;;;5032930;28;20183;-70
2022/12/01 04:14:13;;;;;;;78.10;31.40;;;5.50;99.90;;;;;;5032967;28;20170;-70
2022/12/01 04:16:39;;;;;;;63.47;30.97;;;5.50;99.90;;;;;;5033486;28;20168;-70
2022/12/01 04:19:05;;;;;;;63.03;28.17;;;5.50;99.90;;;;;;5031770;28;20257;-70
2022/12/01 04:21:31;;;;;;;75.17;29.93;;;5.50;99.90;;;;;;5035821;28;20203;-70
2022/12/01 04:23:59;;;;;;;68.17;30.57;;;5.50;99.90;;;;;;5035251;28;20182;-71
2022/12/01 04:26:31;;;;;;;72.60;30.37;;;5.50;99.90;;;;;;5036870;28;20209;-70
2022/12/01 04:28:58;;;;;;;65.17;29.63;;;5.50;99.90;;;;;;5036365;28;20600;-70
2022/12/01 04:31:24;;;;;;;63.87;28.97;;;5.50;99.90;;;;;;5036937;28;20558;-70
2022/12/01 04:33:49;;;;;;;66.27;30.60;;;5.50;99.90;;;;;;5036527;28;20171;-71
2022/12/01 04:36:15;;;;;;;66.83;29.83;;;5.50;99.90;;;;;;5035181;28;20183;-70
2022/12/01 04:38:41;;;;;;;66.40;29.90;;;5.50;99.90;;;;;;5036084;28;20219;-70
2022/12/01 04:41:11;;;;;;;67.70;29.30;;;5.50;99.90;;;;;;5036108;28;20552;-70
2022/12/01 04:43:37;;;;;;;66.77;30.70;;;5.50;99.90;;;;;;5036128;28;20175;-70
2022/12/01 04:46:04;;;;;;;55.70;28.40;;;5.50;99.90;;;;;;5034814;28;20237;-70
2022/12/01 04:48:30;;;;;;;62.70;31.53;;;5.50;99.90;;;;;;5034787;28;20187;-70
2022/12/01 04:50:56;;;;;;;67.43;31.33;;;5.50;99.90;;;;;;5034687;28;20215;-70
2022/12/01 04:53:22;;;;;;;64.63;29.70;;;5.50;99.90;;;;;;5034785;28;20237;-70
2022/12/01 04:55:48;;;;;;;69.83;31.20;;;5.50;99.90;;;;;;5035870;28;20175;-73
2022/12/01 04:58:13;;;;;;;67.83;29.40;;;5.50;99.90;;;;;;5035825;28;20629;-69
2022/12/01 05:00:39;;;;;;;66.43;28.10;;;5.50;99.90;;;;;;5035880;28;20202;-70
2022/12/01 05:03:05;;;;;;;81.13;29.43;;;5.50;99.90;;;;;;5036019;28;20224;-70
2022/12/01 05:05:31;;;;;;;72.27;28.10;;;5.40;99.90;;;;;;5036130;28;20202;-70
2022/12/01 05:07:59;;;;;;;65.97;28.33;;;5.40;99.90;;;;;;5035615;28;20168;-70
2022/12/01 05:10:25;;;;;;;72.87;30.80;;;5.50;99.90;;;;;;5034181;28;20210;-69
2022/12/01 05:12:51;;;;;;;59.93;27.70;;;5.40;99.90;;;;;;5034084;28;20175;-69
2022/12/01 05:15:17;;;;;;;68.77;27.27;;;5.40;99.90;;;;;;5040789;28;20285;-69
2022/12/01 05:17:43;;;;;;;63.07;27.53;;;5.40;99.90;;;;;;5035522;28;20233;-70
2022/12/01 05:23:01;;;;;;;65.70;28.10;;;5.40;99.90;;;;;;5035484;28;20646;-69
2022/12/01 05:25:27;;;;;;;64.67;26.70;;;5.40;99.90;;;;;;5035247;28;20179;-69
2022/12/01 05:27:53;;;;;;;63.83;28.33;;;5.40;99.90;;;;;;5035301;28;20175;-70
2022/12/01 05:30:18;;;;;;;56.90;26.67;;;5.40;99.90;;;;;;5035418;28;20235;-70
2022/12/01 05:32:44;;;;;;;64.13;27.17;;;5.40;99.90;;;;;;5034573;28;20281;-69
2022/12/01 05:35:10;;;;;;;66.20;27.97;;;5.30;99.90;;;;;;5035121;28;20175;-70
2022/12/01 05:37:35;;;;;;;65.20;28.53;;;5.40;99.90;;;;;;5035298;28;20175;-70
2022/12/01 05:40:01;;;;;;;68.47;28.70;;;5.30;99.90;;;;;;5050453;28;20215;-70
2022/12/01 05:42:27;;;;;;;62.10;28.17;;;5.30;99.90;;;;;;5034821;28;20179;-70
2022/12/01 05:44:53;;;;;;;65.63;26.93;;;5.30;99.90;;;;;;5050324;28;20182;-70
2022/12/01 05:47:18;;;;;;;56.67;25.97;;;5.30;99.90;;;;;;5035727;28;20179;-70
2022/12/01 05:49:44;;;;;;;57.63;26.33;;;5.30;99.90;;;;;;5049958;28;20557;-70
2022/12/01 05:52:10;;;;;;;63.20;26.73;;;5.30;99.90;;;;;;5034745;28;20206;-70
2022/12/01 05:54:35;;;;;;;62.37;27.70;;;5.30;99.90;;;;;;5034670;28;20228;-70
2022/12/01 05:57:01;;;;;;;55.93;25.90;;;5.30;99.90;;;;;;5034973;28;20179;-70
2022/12/01 05:59:27;;;;;;;55.23;25.40;;;5.30;99.90;;;;;;5033303;28;20171;-70
2022/12/01 06:01:53;;;;;;;50.57;24.80;;;5.30;99.90;;;;;;5034634;28;20199;-70
2022/12/01 06:04:18;;;;;;;52.73;23.17;;;5.30;99.90;;;;;;5034614;28;20201;-70
2022/12/01 06:06:45;;;;;;;49.63;23.57;;;5.30;99.90;;;;;;5034613;28;20179;-70
2022/12/01 06:09:10;;;;;;;54.80;26.00;;;5.30;99.90;;;;;;5034422;28;20183;-70
2022/12/01 06:11:36;;;;;;;55.93;25.30;;;5.30;99.90;;;;;;5034996;28;20640;-70
2022/12/01 06:14:02;;;;;;;47.23;24.27;;;5.30;99.90;;;;;;5033729;28;20186;-70
2022/12/01 06:16:28;;;;;;;46.60;24.90;;;5.30;99.90;;;;;;5049853;28;20222;-70
2022/12/01 06:18:53;;;;;;;50.63;25.37;;;5.30;99.90;;;;;;5035202;28;20190;-70
2022/12/01 06:21:19;;;;;;;51.00;25.10;;;5.30;99.90;;;;;;5049668;28;20238;-70
2022/12/01 06:23:45;;;;;;;48.03;23.73;;;5.30;99.90;;;;;;5032934;28;20187;-70
2022/12/01 06:26:10;;;;;;;56.53;26.83;;;5.30;99.90;;;;;;5049508;28;20191;-70
2022/12/01 06:28:36;;;;;;;55.43;27.63;;;5.30;99.90;;;;;;5049292;28;20198;-70
2022/12/01 06:31:02;;;;;;;62.50;25.37;;;5.30;99.90;;;;;;5034178;28;20210;-70
2022/12/01 06:33:28;;;;;;;50.90;25.70;;;5.30;99.90;;;;;;5034181;28;20555;-70
2022/12/01 06:36:01;;;;;;;54.03;24.93;;;5.30;99.90;;;;;;5049406;28;20585;-70
2022/12/01 06:38:32;;;;;;;53.83;26.20;;;5.30;99.90;;;;;;5049398;28;20197;-70
2022/12/01 06:40:58;;;;;;;53.23;24.90;;;5.30;99.90;;;;;;5033723;28;20202;-70
2022/12/01 06:43:24;;;;;;;49.00;24.27;;;5.30;99.90;;;;;;5033186;28;20254;-70
2022/12/01 06:45:50;;;;;;;46.23;23.37;;;5.30;99.90;;;;;;5033900;28;20211;-70
2022/12/01 06:48:16;;;;;;;51.67;23.10;;;5.30;99.90;;;;;;5049127;28;20183;-70
2022/12/01 06:50:42;;;;;;;44.63;21.43;;;5.30;99.90;;;;;;5034395;28;20681;-70
2022/12/01 06:53:08;;;;;;;44.70;20.30;;;5.30;99.90;;;;;;5049142;28;20191;-70
2022/12/01 06:55:35;;;;;;;44.93;20.27;;;5.20;99.90;;;;;;5034032;28;20171;-70
2022/12/01 06:58:01;;;;;;;42.37;20.20;;;5.20;99.90;;;;;;5033772;28;20177;-70
2022/12/01 07:00:27;;;;;;;39.30;21.00;;;5.20;99.90;;;;;;5034249;28;20207;-70
2022/12/01 07:02:53;;;;;;;41.80;21.33;;;5.30;99.90;;;;;;5033617;28;20267;-70
2022/12/01 07:05:19;;;;;;;49.60;23.27;;;5.20;99.90;;;;;;5048916;28;20703;-70
2022/12/01 07:07:44;;;;;;;42.97;20.47;;;5.20;99.90;;;;;;5033623;28;20179;-70
2022/12/01 07:10:11;;;;;;;38.73;21.90;;;5.20;99.90;;;;;;5033394;28;20214;-71
2022/12/01 07:12:38;;;;;;;40.27;20.10;;;5.20;99.90;;;;;;5048669;28;20183;-70
2022/12/01 07:15:06;;;;;;;48.43;22.93;;;5.30;99.90;;;;;;5048999;28;20248;-70
2022/12/01 07:17:33;;;;;;;51.27;23.30;;;5.30;99.90;;;;;;5033528;28;20598;-71
2022/12/01 07:19:59;;;;;;;48.30;22.33;;;5.30;99.90;;;;;;5033288;28;20236;-71
2022/12/01 07:22:26;;;;;;;35.50;20.27;;;5.20;99.90;;;;;;5048890;28;20552;-70
2022/12/01 07:24:52;;;;;;;42.17;20.20;;;5.20;99.90;;;;;;5033383;28;20186;-70
2022/12/01 07:27:18;;;;;;;44.23;23.57;;;5.20;99.90;;;;;;5033476;28;20174;-71
2022/12/01 07:29:43;;;;;;;41.83;21.73;;;5.20;99.90;;;;;;5048489;28;20183;-70
2022/12/01 07:32:09;;;;;;;49.80;22.50;;;5.20;99.90;;;;;;5048655;28;20599;-70
2022/12/01 07:34:35;;;;;;;42.07;23.00;;;5.20;99.90;;;;;;5033445;28;20171;-70
2022/12/01 07:37:00;;;;;;;44.73;23.17;;;5.10;99.90;;;;;;5048463;28;20525;-70
2022/12/01 07:39:26;;;;;;;39.80;23.47;;;5.20;99.90;;;;;;5033049;28;20245;-70
2022/12/01 07:41:52;;;;;;;55.50;24.33;;;5.20;99.90;;;;;;5048431;28;20257;-73
2022/12/01 07:44:18;;;;;;;52.23;24.77;;;5.10;99.90;;;;;;5048302;28;20643;-75
2022/12/01 07:46:43;;;;;;;55.63;25.57;;;5.10;99.90;;;;;;5033109;28;20305;-70
2022/12/01 07:49:11;;;;;;;60.20;27.60;;;5.10;99.90;;;;;;5033361;28;20194;-70
2022/12/01 07:51:36;;;;;;;58.70;26.43;;;5.10;99.90;;;;;;5032910;28;20718;-70
2022/12/01 07:54:05;;;;;;;66.07;27.10;;;5.10;99.90;;;;;;5033319;28;20168;-70
2022/12/01 07:56:31;;;;;;;56.33;25.87;;;5.10;99.90;;;;;;5036299;28;20175;-70
2022/12/01 07:58:57;;;;;;;58.10;28.70;;;5.10;99.90;;;;;;5052092;28;20179;-71
2022/12/01 08:01:23;;;;;;;61.37;27.60;;;5.10;99.90;;;;;;5037241;28;20202;-71
2022/12/01 08:03:54;;;;;;;65.90;26.93;;;5.10;99.90;;;;;;5052245;28;20179;-70
2022/12/01 08:06:21;;;;;;;60.70;26.73;;;5.10;99.90;;;;;;5036965;28;20512;-70
2022/12/01 08:08:47;;;;;;;61.50;25.47;;;5.20;99.90;;;;;;5037142;28;20194;-70
2022/12/01 08:11:16;;;;;;;60.27;26.27;;;5.20;99.90;;;;;;5036723;28;20285;-70
2022/12/01 08:13:43;;;;;;;67.50;28.17;;;5.20;99.90;;;;;;5036845;28;20707;-71
2022/12/01 08:16:13;;;;;;;58.90;26.53;;;5.20;99.90;;;;;;5036777;28;20245;-70
2022/12/01 08:18:40;;;;;;;52.57;26.03;;;5.20;99.90;;;;;;5036574;28;20210;-71
2022/12/01 08:21:08;;;;;;;48.13;24.53;;;5.10;99.90;;;;;;5035241;28;20234;-70
2022/12/01 08:23:34;;;;;;;63.37;28.60;;;5.10;99.90;;;;;;5036960;28;20207;-70
2022/12/01 08:26:05;;;;;;;71.00;31.17;;;5.10;99.90;;;;;;5018653;28;20222;-71
2022/12/01 08:28:31;;;;;;;77.63;35.53;;;5.10;99.90;;;;;;5036413;28;20262;-71
2022/12/01 08:30:57;;;;;;;71.73;35.07;;;5.10;99.90;;;;;;5034945;28;20215;-70
2022/12/01 08:33:23;;;;;;;79.97;34.33;;;5.00;99.90;;;;;;5035123;28;20190;-71
2022/12/01 08:35:48;;;;;;;73.93;34.70;;;5.00;99.90;;;;;;5036699;28;20257;-71
2022/12/01 08:38:15;;;;;;;79.97;34.43;;;4.90;99.90;;;;;;5036604;28;20190;-70
2022/12/01 08:40:40;;;;;;;82.47;34.23;;;4.90;99.90;;;;;;5036313;28;20210;-71
2022/12/01 08:43:06;;;;;;;69.57;34.63;;;4.90;99.90;;;;;;5036148;28;20183;-70
2022/12/01 08:45:32;;;;;;;78.53;35.83;;;4.90;99.90;;;;;;5036123;28;20176;-70
2022/12/01 08:47:58;;;;;;;74.87;35.53;;;5.00;99.90;;;;;;5036100;28;20187;-71
2022/12/01 08:50:25;;;;;;;72.73;33.13;;;5.00;99.90;;;;;;5018102;28;20218;-70
2022/12/01 08:52:51;;;;;;;79.40;36.00;;;5.00;99.90;;;;;;5036337;28;20245;-71
2022/12/01 08:55:18;;;;;;;80.70;35.47;;;5.00;99.90;;;;;;5034681;28;20179;-71
2022/12/01 08:57:43;;;;;;;80.83;36.50;;;5.00;99.90;;;;;;5035701;28;20254;-70
2022/12/01 09:00:10;;;;;;;69.50;35.90;;;5.10;99.90;;;;;;5034540;28;20641;-70
2022/12/01 09:02:36;;;;;;;80.07;37.30;;;5.10;99.90;;;;;;5034531;28;20183;-70
2022/12/01 09:05:02;;;;;;;81.10;36.20;;;5.10;99.90;;;;;;5034377;28;20187;-70
2022/12/01 09:07:27;;;;;;;83.93;36.37;;;5.10;99.90;;;;;;5034686;28;20529;-70
2022/12/01 09:09:53;;;;;;;70.80;33.97;;;5.10;99.90;;;;;;5035371;28;20203;-70
2022/12/01 09:12:19;;;;;;;69.90;32.77;;;5.10;99.90;;;;;;5035598;28;20621;-71
2022/12/01 09:14:47;;;;;;;70.20;34.17;;;5.20;99.90;;;;;;5035165;28;20271;-70
2022/12/01 09:17:14;;;;;;;75.90;34.57;;;5.20;99.90;;;;;;5035531;28;20746;-70
2022/12/01 09:19:39;;;;;;;79.50;37.63;;;5.20;99.90;;;;;;5034187;28;20265;-70
2022/12/01 09:22:05;;;;;;;70.43;33.67;;;5.20;99.90;;;;;;5035479;28;20274;-70
2022/12/01 09:24:31;;;;;;;70.23;34.07;;;5.20;99.90;;;;;;5035684;28;20183;-70
2022/12/01 09:26:58;;;;;;;66.70;31.53;;;5.20;99.90;;;;;;5035669;28;20187;-71
2022/12/01 09:29:24;;;;;;;64.97;32.10;;;5.30;99.90;;;;;;5033905;28;20183;-70
2022/12/01 09:31:53;;;;;;;74.43;32.50;;;5.30;99.90;;;;;;5035130;28;20214;-71
2022/12/01 09:34:19;;;;;;;68.37;34.03;;;5.20;99.90;;;;;;5035204;28;20647;-70
2022/12/01 09:36:46;;;;;;;71.57;33.87;;;5.30;99.90;;;;;;5035133;28;20195;-71
2022/12/01 09:39:18;;;;;;;71.53;33.83;;;5.30;99.90;;;;;;5033580;28;20241;-70
2022/12/01 09:41:49;;;;;;;68.17;33.33;;;5.20;99.90;;;;;;5033710;28;20576;-70
2022/12/01 09:44:29;;;;;;;78.10;33.07;;;5.20;99.90;;;;;;5035003;28;20185;-70
2022/12/01 09:46:58;;;;;;;72.77;34.63;;;5.20;99.90;;;;;;5035300;28;20178;-70
2022/12/01 09:49:50;;;;;;;70.33;34.40;;;5.30;99.90;;;;;;5017184;28;20194;-70
2022/12/01 09:52:18;;;;;;;76.70;36.23;;;5.30;99.90;;;;;;5004554;28;20244;-70
2022/12/01 09:54:45;;;;;;;74.70;36.70;;;5.30;99.90;;;;;;5034786;28;20179;-71
2022/12/01 09:57:35;;;;;;;77.10;35.83;;;5.30;99.90;;;;;;5035189;28;20655;-70
2022/12/01 10:00:10;;;;;;;90.07;38.17;;;5.30;99.90;;;;;;5034321;28;20211;-70
2022/12/01 10:02:41;;;;;;;77.53;35.57;;;5.40;99.90;;;;;;5033602;28;20193;-70
2022/12/01 10:05:15;;;;;;;79.43;36.20;;;5.40;99.90;;;;;;5034862;28;20159;-70
2022/12/01 10:08:11;;;;;;;79.83;36.73;;;5.40;99.90;;;;;;5034692;28;20170;-71
2022/12/01 10:10:41;;;;;;;75.97;35.37;;;5.50;99.90;;;;;;5031560;28;20326;-70
2022/12/01 10:13:27;;;;;;;87.57;38.73;;;5.50;99.90;;;;;;5034674;28;20170;-70
2022/12/01 10:15:53;;;;;;;81.33;37.20;;;5.60;99.90;;;;;;5034355;28;20183;-70
2022/12/01 10:18:40;;;;;;;79.77;37.17;;;5.60;99.90;;;;;;5034145;28;20234;-71
2022/12/01 10:21:22;;;;;;;78.77;37.13;;;5.70;99.90;;;;;;5035037;28;20660;-70
2022/12/01 10:24:06;;;;;;;92.27;42.43;;;5.70;99.90;;;;;;5034372;28;20163;-71
2022/12/01 10:26:58;;;;;;;86.50;38.70;;;5.70;99.90;;;;;;5034475;28;20166;-71
2022/12/01 10:29:55;;;;;;;82.90;37.80;;;5.70;99.90;;;;;;5034179;28;20175;-71
2022/12/01 10:32:33;;;;;;;86.30;41.93;;;5.80;99.90;;;;;;5034431;28;20163;-71
2022/12/01 10:34:59;;;;;;;81.97;41.00;;;5.70;99.90;;;;;;5034334;28;20604;-70
2022/12/01 10:37:29;;;;;;;92.50;42.23;;;5.70;99.90;;;;;;5032894;28;20321;-71
2022/12/01 10:39:56;;;;;;;89.60;43.27;;;5.70;99.90;;;;;;5034242;28;20290;-70
2022/12/01 10:42:43;;;;;;;91.13;41.30;;;5.70;99.90;;;;;;5033942;28;20178;-70
2022/12/01 10:45:17;;;;;;;91.73;41.53;;;5.80;99.90;;;;;;5032556;28;20577;-70
2022/12/01 10:48:09;;;;;;;90.97;41.37;;;5.80;99.90;;;;;;5034339;28;20270;-70
2022/12/01 10:50:35;;;;;;;87.33;40.10;;;5.80;99.90;;;;;;5033709;28;20203;-70
2022/12/01 10:53:02;;;;;;;80.10;40.67;;;5.90;99.90;;;;;;5032874;28;20543;-71
2022/12/01 10:55:32;;;;;;;93.90;43.47;;;6.00;99.90;;;;;;5033848;28;20178;-70
2022/12/01 10:58:01;;;;;;;89.13;41.90;;;6.00;99.90;;;;;;5033493;28;20182;-70
2022/12/01 11:00:38;;;;;;;91.67;44.47;;;6.00;99.90;;;;;;5033635;28;20195;-70
2022/12/01 11:03:05;;;;;;;82.37;39.77;;;6.00;99.90;;;;;;5032550;28;20179;-70
2022/12/01 11:05:35;;;;;;;84.97;41.33;;;5.90;99.90;;;;;;5034013;28;20248;-70
2022/12/01 11:08:02;;;;;;;73.27;39.37;;;5.90;99.90;;;;;;5032392;28;20186;-70
2022/12/01 11:10:35;;;;;;;78.87;40.13;;;6.00;99.90;;;;;;5032245;28;20211;-70
2022/12/01 11:13:16;;;;;;;71.67;37.00;;;5.90;99.90;;;;;;5033892;28;20170;-71
2022/12/01 11:15:54;;;;;;;71.20;38.03;;;5.90;99.90;;;;;;5025589;28;20186;-70
2022/12/01 11:18:35;;;;;;;74.33;40.17;;;5.90;99.90;;;;;;5048937;28;20542;-70
2022/12/01 11:21:22;;;;;;;73.40;36.93;;;5.90;99.90;;;;;;5033485;28;20694;-71
2022/12/01 11:23:50;;;;;;;70.50;37.07;;;5.90;99.90;;;;;;5032290;28;20171;-70
2022/12/01 11:26:30;;;;;;;66.63;35.73;;;5.80;99.90;;;;;;5033620;28;20178;-72
2022/12/01 11:29:28;;;;;;;71.80;35.80;;;5.80;99.90;;;;;;5033388;28;20171;-70
2022/12/01 11:31:54;;;;;;;66.77;35.73;;;5.70;99.90;;;;;;5033696;28;20226;-70
2022/12/01 11:34:24;;;;;;;68.90;36.07;;;5.80;99.90;;;;;;5052846;28;20182;-71
2022/12/01 11:36:56;;;;;;;62.80;36.27;;;5.70;99.90;;;;;;5037552;28;20186;-71
2022/12/01 11:39:26;;;;;;;65.70;36.17;;;5.70;99.90;;;;;;5037451;28;20175;-70
2022/12/01 11:42:04;;;;;;;65.63;35.77;;;5.70;99.90;;;;;;5037246;28;20252;-70
2022/12/01 11:44:31;;;;;;;68.23;35.40;;;5.70;99.90;;;;;;5037256;28;20187;-70
2022/12/01 11:47:21;;;;;;;70.20;37.87;;;5.70;99.90;;;;;;5052689;28;20185;-70
2022/12/01 11:50:03;;;;;;;74.07;37.77;;;5.70;99.90;;;;;;5037603;28;20167;-70
2022/12/01 11:52:30;;;;;;;66.67;37.33;;;5.70;99.90;;;;;;5052553;28;20190;-70
2022/12/01 11:55:02;;;;;;;66.07;36.13;;;5.70;99.90;;;;;;5037405;28;20178;-70
2022/12/01 11:57:29;;;;;;;59.90;33.43;;;5.70;99.90;;;;;;5037370;28;20166;-70
2022/12/01 11:59:55;;;;;;;64.73;35.80;;;5.80;99.90;;;;;;5052069;28;20682;-70
2022/12/01 12:02:45;;;;;;;57.67;33.80;;;5.80;99.90;;;;;;5037086;28;20171;-70
2022/12/01 12:05:17;;;;;;;61.70;34.03;;;5.80;99.90;;;;;;5037029;28;20218;-70
2022/12/01 12:08:28;;;;;;;59.33;33.87;;;5.80;99.90;;;;;;5037303;28;20187;-70
2022/12/01 12:11:09;;;;;;;59.87;33.97;;;5.80;99.90;;;;;;5034654;28;20595;-70
2022/12/01 12:13:53;;;;;;;63.13;35.17;;;5.70;99.90;;;;;;5036656;28;20620;-70
2022/12/01 12:16:34;;;;;;;57.50;33.27;;;5.70;99.90;;;;;;5036958;28;20187;-70
2022/12/01 12:19:15;;;;;;;58.00;31.93;;;5.70;99.90;;;;;;5019151;28;20274;-70
2022/12/01 12:22:01;;;;;;;55.30;33.13;;;5.70;99.90;;;;;;5036909;28;20690;-70
2022/12/01 12:24:51;;;;;;;58.27;33.40;;;5.70;99.90;;;;;;4996449;28;20191;-70
2022/12/01 12:27:41;;;;;;;62.17;33.73;;;5.70;99.90;;;;;;5038621;28;20168;-70
2022/12/01 12:30:07;;;;;;;58.03;34.03;;;5.70;99.90;;;;;;5039760;28;20817;-69
2022/12/01 12:32:57;;;;;;;61.53;34.47;;;5.60;99.90;;;;;;5021586;28;20194;-70
2022/12/01 12:35:44;;;;;;;59.27;33.47;;;5.60;99.90;;;;;;5021203;28;20180;-70
2022/12/01 12:38:25;;;;;;;64.10;34.23;;;5.60;99.90;;;;;;5036645;28;20160;-70
2022/12/01 12:40:55;;;;;;;62.30;32.77;;;5.60;99.90;;;;;;5036475;28;20317;-69
2022/12/01 12:43:58;;;;;;;55.63;31.30;;;5.70;99.90;;;;;;5036520;28;20580;-69
2022/12/01 12:46:33;;;;;;;60.70;32.70;;;5.80;99.90;;;;;;5019007;28;20211;-71
2022/12/01 12:49:36;;;;;;;56.73;31.73;;;5.80;99.90;;;;;;5035115;28;20179;-69
2022/12/01 12:52:17;;;;;;;58.87;32.23;;;5.80;99.90;;;;;;5018720;28;20207;-69
2022/12/01 12:54:51;;;;;;;62.43;33.63;;;5.80;99.90;;;;;;5036089;28;20167;-69
2022/12/01 12:57:34;;;;;;;54.93;30.60;;;5.80;99.90;;;;;;5036341;28;20167;-70
2022/12/01 13:00:04;;;;;;;65.87;35.10;;;5.80;99.90;;;;;;5035871;28;20198;-71